sensor_id;sensor_type;location;lat;lon;timestamp;pressure;altitude;pressure_sealevel;temperature;humidity
18765;BME280;9511;54.242;12.448;2023-05-07T03:05:24;102268.28;;;5.00;100.00
18765;BME280;9511;54.242;12.448;2023-05-07T03:07:51;102269.09;;;4.99;100.00
18765;BME280;9511;54.242;12.448;2023-05-07T03:10:19;102267.16;;;4.97;100.00
18765;BME280;9511;54.242;12.448;2023-05-07T03:12:47;102271.94;;;4.91;100.00
18765;BME280;9511;54.242;12.448;2023-05-07T03:15:16;102263.75;;;4.86;100.00
18765;BME280;9511;54.242;12.448;2023-05-07T03:17:44;102262.84;;;4.86;100.00
18765;BME280;9511;54.242;12.448;2023-05-07T03:20:11;102267.97;;;4.84;100.00
18765;BME280;9511;54.242;12.448;2023-05-07T03:22:40;102264.44;;;4.84;100.00
18765;BME280;9511;54.242;12.448;2023-05-07T03:25:08;102272.22;;;4.82;100.00
18765;BME280;9511;54.242;12.448;2023-05-07T03:27:36;102273.78;;;4.80;100.00
18765;BME280;9511;54.242;12.448;2023-05-07T03:30:05;102268.34;;;4.77;100.00
18765;BME280;9511;54.242;12.448;2023-05-07T03:32:33;102278.59;;;4.74;100.00
18765;BME280;9511;54.242;12.448;2023-05-07T03:35:05;102273.25;;;4.72;100.00
18765;BME280;9511;54.242;12.448;2023-05-07T03:37:34;102282.72;;;4.70;100.00
18765;BME280;9511;54.242;12.448;2023-05-07T03:40:04;102280.09;;;4.70;100.00
18765;BME280;9511;54.242;12.448;2023-05-07T03:42:39;102282.59;;;4.69;100.00
18765;BME280;9511;54.242;12.448;2023-05-07T03:45:07;102283.38;;;4.68;100.00
18765;BME280;9511;54.242;12.448;2023-05-07T03:47:36;102277.94;;;4.65;100.00
18765;BME280;9511;54.242;12.448;2023-05-07T03:50:04;102286.81;;;4.67;100.00
18765;BME280;9511;54.242;12.448;2023-05-07T03:52:31;102282.47;;;4.67;100.00
18765;BME280;9511;54.242;12.448;2023-05-07T03:55:03;102287.97;;;4.70;100.00
18765;BME280;9511;54.242;12.448;2023-05-07T03:57:33;102284.19;;;4.67;100.00
18765;BME280;9511;54.242;12.448;2023-05-07T04:00:00;102287.03;;;4.70;100.00
18765;BME280;9511;54.242;12.448;2023-05-07T04:02:34;102289.88;;;4.73;100.00
18765;BME280;9511;54.242;12.448;2023-05-07T04:05:02;102292.84;;;4.77;100.00
18765;BME280;9511;54.242;12.448;2023-05-07T04:07:30;102296.38;;;4.78;100.00
18765;BME280;9511;54.242;12.448;2023-05-07T04:09:57;102298.53;;;4.84;100.00
18765;BME280;9511;54.242;12.448;2023-05-07T04:12:26;102304.13;;;4.88;100.00
18765;BME280;9511;54.242;12.448;2023-05-07T04:14:53;102299.31;;;4.94;100.00
18765;BME280;9511;54.242;12.448;2023-05-07T04:17:22;102305.66;;;4.98;100.00
18765;BME280;9511;54.242;12.448;2023-05-07T04:19:50;102301.56;;;5.01;100.00
18765;BME280;9511;54.242;12.448;2023-05-07T04:22:18;102301.78;;;5.04;100.00
18765;BME280;9511;54.242;12.448;2023-05-07T04:24:45;102310.13;;;5.11;100.00
18765;BME280;9511;54.242;12.448;2023-05-07T04:27:13;102312.38;;;5.18;100.00
18765;BME280;9511;54.242;12.448;2023-05-07T04:29:42;102311.00;;;5.23;100.00
18765;BME280;9511;54.242;12.448;2023-05-07T04:32:13;102316.53;;;5.27;100.00
18765;BME280;9511;54.242;12.448;2023-05-07T04:34:41;102316.28;;;5.36;100.00
18765;BME280;9511;54.242;12.448;2023-05-07T04:37:08;102316.72;;;5.42;100.00
18765;BME280;9511;54.242;12.448;2023-05-07T04:39:36;102313.00;;;5.64;100.00
18765;BME280;9511;54.242;12.448;2023-05-07T04:42:04;102312.63;;;5.84;100.00
18765;BME280;9511;54.242;12.448;2023-05-07T04:44:33;102305.84;;;5.99;100.00
18765;BME280;9511;54.242;12.448;2023-05-07T04:47:04;102307.69;;;6.13;100.00
18765;BME280;9511;54.242;12.448;2023-05-07T04:49:32;102308.53;;;6.26;100.00
18765;BME280;9511;54.242;12.448;2023-05-07T04:51:59;102297.84;;;6.49;100.00
18765;BME280;9511;54.242;12.448;2023-05-07T04:54:27;102311.06;;;6.64;100.00
18765;BME280;9511;54.242;12.448;2023-05-07T04:56:54;102308.53;;;6.79;100.00
18765;BME280;9511;54.242;12.448;2023-05-07T04:59:22;102313.59;;;6.76;100.00
18765;BME280;9511;54.242;12.448;2023-05-07T05:01:50;102318.44;;;6.96;100.00
18765;BME280;9511;54.242;12.448;2023-05-07T05:04:19;102323.56;;;7.08;100.00
18765;BME280;9511;54.242;12.448;2023-05-07T05:06:46;102316.47;;;7.20;100.00
18765;BME280;9511;54.242;12.448;2023-05-07T05:09:14;102318.25;;;7.34;100.00
18765;BME280;9511;54.242;12.448;2023-05-07T05:11:42;102319.72;;;7.44;100.00
18765;BME280;9511;54.242;12.448;2023-05-07T05:14:09;102314.69;;;7.62;100.00
18765;BME280;9511;54.242;12.448;2023-05-07T05:16:36;102324.53;;;7.64;100.00
18765;BME280;9511;54.242;12.448;2023-05-07T05:19:04;102316.69;;;7.66;100.00
18765;BME280;9511;54.242;12.448;2023-05-07T05:21:36;102324.13;;;7.58;100.00
18765;BME280;9511;54.242;12.448;2023-05-07T05:24:07;102323.69;;;7.65;100.00
18765;BME280;9511;54.242;12.448;2023-05-07T05:26:35;102325.88;;;7.72;100.00
18765;BME280;9511;54.242;12.448;2023-05-07T05:29:02;102332.19;;;7.75;100.00
18765;BME280;9511;54.242;12.448;2023-05-07T05:31:31;102329.28;;;7.85;100.00
18765;BME280;9511;54.242;12.448;2023-05-07T05:33:59;102329.56;;;7.89;100.00
18765;BME280;9511;54.242;12.448;2023-05-07T05:36:27;102328.41;;;7.99;100.00
18765;BME280;9511;54.242;12.448;2023-05-07T05:38:58;102330.94;;;8.12;100.00
18765;BME280;9511;54.242;12.448;2023-05-07T05:41:25;102330.50;;;8.19;100.00
18765;BME280;9511;54.242;12.448;2023-05-07T05:43:53;102325.97;;;8.32;100.00
18765;BME280;9511;54.242;12.448;2023-05-07T05:46:21;102331.31;;;8.33;99.57
18765;BME280;9511;54.242;12.448;2023-05-07T05:48:50;102337.44;;;8.47;98.60
18765;BME280;9511;54.242;12.448;2023-05-07T05:51:21;102337.53;;;8.63;97.93
18765;BME280;9511;54.242;12.448;2023-05-07T05:53:49;102340.00;;;8.60;96.55
18765;BME280;9511;54.242;12.448;2023-05-07T05:56:17;102335.16;;;8.68;95.29
18765;BME280;9511;54.242;12.448;2023-05-07T05:58:46;102341.88;;;8.77;94.24
18765;BME280;9511;54.242;12.448;2023-05-07T06:01:14;102339.19;;;8.92;94.05
18765;BME280;9511;54.242;12.448;2023-05-07T06:03:42;102339.81;;;9.03;93.24
18765;BME280;9511;54.242;12.448;2023-05-07T06:06:13;102334.88;;;9.09;92.26
18765;BME280;9511;54.242;12.448;2023-05-07T06:08:42;102348.59;;;9.18;90.85
18765;BME280;9511;54.242;12.448;2023-05-07T06:11:12;102348.75;;;9.21;89.58
18765;BME280;9511;54.242;12.448;2023-05-07T06:13:43;102353.88;;;9.35;89.59
18765;BME280;9511;54.242;12.448;2023-05-07T06:16:11;102351.44;;;9.54;88.80
18765;BME280;9511;54.242;12.448;2023-05-07T06:18:38;102346.31;;;9.57;88.47
18765;BME280;9511;54.242;12.448;2023-05-07T06:21:06;102344.84;;;9.62;87.64
18765;BME280;9511;54.242;12.448;2023-05-07T06:23:35;102349.97;;;9.75;87.52
18765;BME280;9511;54.242;12.448;2023-05-07T06:26:02;102346.84;;;9.82;87.05
18765;BME280;9511;54.242;12.448;2023-05-07T06:28:35;102354.31;;;9.91;86.35
18765;BME280;9511;54.242;12.448;2023-05-07T06:31:12;102355.41;;;9.95;85.24
18765;BME280;9511;54.242;12.448;2023-05-07T06:33:41;102358.44;;;10.02;84.38
18765;BME280;9511;54.242;12.448;2023-05-07T06:36:09;102367.16;;;10.00;83.27
18765;BME280;9511;54.242;12.448;2023-05-07T06:38:36;102363.09;;;10.06;83.24
18765;BME280;9511;54.242;12.448;2023-05-07T06:41:05;102356.81;;;10.04;82.52
18765;BME280;9511;54.242;12.448;2023-05-07T06:43:32;102364.88;;;10.07;82.07
18765;BME280;9511;54.242;12.448;2023-05-07T06:46:34;102374.22;;;10.17;81.93
18765;BME280;9511;54.242;12.448;2023-05-07T06:49:03;102370.94;;;10.21;81.04
18765;BME280;9511;54.242;12.448;2023-05-07T06:51:31;102371.66;;;10.19;80.67
18765;BME280;9511;54.242;12.448;2023-05-07T06:54:03;102377.28;;;10.08;81.19
18765;BME280;9511;54.242;12.448;2023-05-07T06:56:32;102369.69;;;10.31;81.20
18765;BME280;9511;54.242;12.448;2023-05-07T06:59:00;102366.13;;;10.30;81.05
18765;BME280;9511;54.242;12.448;2023-05-07T07:01:30;102370.09;;;10.39;81.51
18765;BME280;9511;54.242;12.448;2023-05-07T07:03:58;102370.56;;;10.48;80.86
18765;BME280;9511;54.242;12.448;2023-05-07T07:06:26;102370.84;;;10.54;80.94
18765;BME280;9511;54.242;12.448;2023-05-07T07:08:54;102362.25;;;10.58;80.70
18765;BME280;9511;54.242;12.448;2023-05-07T07:11:21;102362.13;;;10.73;81.00
18765;BME280;9511;54.242;12.448;2023-05-07T07:13:49;102362.13;;;10.90;80.62
18765;BME280;9511;54.242;12.448;2023-05-07T07:16:17;102360.63;;;10.96;80.12
18765;BME280;9511;54.242;12.448;2023-05-07T07:18:45;102369.47;;;11.14;79.44
18765;BME280;9511;54.242;12.448;2023-05-07T07:21:15;102372.75;;;11.28;79.08
18765;BME280;9511;54.242;12.448;2023-05-07T07:23:42;102368.47;;;11.30;78.48
18765;BME280;9511;54.242;12.448;2023-05-07T07:26:10;102373.56;;;11.44;77.78
18765;BME280;9511;54.242;12.448;2023-05-07T07:28:42;102365.63;;;11.64;76.70
18765;BME280;9511;54.242;12.448;2023-05-07T07:31:10;102358.72;;;11.48;75.48
18765;BME280;9511;54.242;12.448;2023-05-07T07:33:38;102364.66;;;11.42;74.44
18765;BME280;9511;54.242;12.448;2023-05-07T07:36:06;102356.94;;;11.47;74.29
18765;BME280;9511;54.242;12.448;2023-05-07T07:38:35;102357.66;;;11.44;73.27
18765;BME280;9511;54.242;12.448;2023-05-07T07:41:07;102357.16;;;11.34;73.39
18765;BME280;9511;54.242;12.448;2023-05-07T07:43:35;102369.47;;;11.51;73.58
18765;BME280;9511;54.242;12.448;2023-05-07T07:46:03;102361.88;;;11.59;73.05
18765;BME280;9511;54.242;12.448;2023-05-07T07:48:31;102369.28;;;11.66;72.02
18765;BME280;9511;54.242;12.448;2023-05-07T07:50:59;102363.97;;;11.66;70.92
18765;BME280;9511;54.242;12.448;2023-05-07T07:53:27;102360.31;;;11.64;70.77
18765;BME280;9511;54.242;12.448;2023-05-07T07:55:56;102370.03;;;11.63;70.59
18765;BME280;9511;54.242;12.448;2023-05-07T07:58:26;102363.16;;;11.86;70.23
18765;BME280;9511;54.242;12.448;2023-05-07T08:00:57;102375.69;;;11.89;69.54
18765;BME280;9511;54.242;12.448;2023-05-07T08:03:25;102367.22;;;11.98;69.68
18765;BME280;9511;54.242;12.448;2023-05-07T08:05:57;102365.38;;;11.77;67.63
18765;BME280;9511;54.242;12.448;2023-05-07T08:08:25;102369.31;;;12.05;67.60
18765;BME280;9511;54.242;12.448;2023-05-07T08:10:54;102355.75;;;12.18;68.17
18765;BME280;9511;54.242;12.448;2023-05-07T08:13:29;102368.19;;;12.19;67.49
18765;BME280;9511;54.242;12.448;2023-05-07T08:15:58;102355.13;;;12.23;66.89
18765;BME280;9511;54.242;12.448;2023-05-07T08:18:25;102373.53;;;12.40;67.96
18765;BME280;9511;54.242;12.448;2023-05-07T08:20:55;102359.63;;;12.45;67.58
18765;BME280;9511;54.242;12.448;2023-05-07T08:23:25;102359.28;;;12.59;67.57
18765;BME280;9511;54.242;12.448;2023-05-07T08:25:53;102362.41;;;12.90;67.73
18765;BME280;9511;54.242;12.448;2023-05-07T08:28:21;102366.25;;;12.98;65.78
18765;BME280;9511;54.242;12.448;2023-05-07T08:30:49;102373.53;;;13.02;64.63
18765;BME280;9511;54.242;12.448;2023-05-07T08:33:17;102361.84;;;12.99;64.59
18765;BME280;9511;54.242;12.448;2023-05-07T08:35:44;102363.78;;;13.03;64.48
18765;BME280;9511;54.242;12.448;2023-05-07T08:38:13;102365.47;;;13.01;63.53
18765;BME280;9511;54.242;12.448;2023-05-07T08:40:41;102361.34;;;13.08;63.73
18765;BME280;9511;54.242;12.448;2023-05-07T08:43:14;102366.44;;;13.03;63.69
18765;BME280;9511;54.242;12.448;2023-05-07T08:45:45;102365.84;;;13.31;63.69
18765;BME280;9511;54.242;12.448;2023-05-07T08:48:16;102364.38;;;13.39;64.12
18765;BME280;9511;54.242;12.448;2023-05-07T08:50:49;102363.41;;;13.60;61.47
18765;BME280;9511;54.242;12.448;2023-05-07T08:53:17;102366.31;;;13.43;59.61
18765;BME280;9511;54.242;12.448;2023-05-07T08:55:45;102360.59;;;13.55;60.52
18765;BME280;9511;54.242;12.448;2023-05-07T08:58:14;102364.25;;;13.59;59.91
18765;BME280;9511;54.242;12.448;2023-05-07T09:00:41;102373.44;;;13.67;59.21
18765;BME280;9511;54.242;12.448;2023-05-07T09:03:10;102371.44;;;13.61;59.43
18765;BME280;9511;54.242;12.448;2023-05-07T09:05:41;102367.84;;;13.83;59.40
18765;BME280;9511;54.242;12.448;2023-05-07T09:08:14;102365.00;;;13.78;59.63
18765;BME280;9511;54.242;12.448;2023-05-07T09:10:42;102344.22;;;13.92;59.37
18765;BME280;9511;54.242;12.448;2023-05-07T09:13:11;102349.94;;;14.03;60.44
18765;BME280;9511;54.242;12.448;2023-05-07T09:15:40;102356.75;;;14.19;59.76
18765;BME280;9511;54.242;12.448;2023-05-07T09:18:08;102347.03;;;13.95;58.80
18765;BME280;9511;54.242;12.448;2023-05-07T09:20:38;102358.47;;;14.17;58.63
18765;BME280;9511;54.242;12.448;2023-05-07T09:23:08;102350.59;;;14.45;57.93
18765;BME280;9511;54.242;12.448;2023-05-07T09:25:36;102354.00;;;14.41;57.69
18765;BME280;9511;54.242;12.448;2023-05-07T09:28:11;102345.22;;;14.69;57.28
18765;BME280;9511;54.242;12.448;2023-05-07T09:30:38;102352.19;;;14.91;57.14
18765;BME280;9511;54.242;12.448;2023-05-07T09:33:08;102340.09;;;14.75;56.91
18765;BME280;9511;54.242;12.448;2023-05-07T09:35:39;102344.81;;;14.84;57.41
18765;BME280;9511;54.242;12.448;2023-05-07T09:38:12;102354.44;;;15.07;57.14
18765;BME280;9511;54.242;12.448;2023-05-07T09:40:40;102340.00;;;14.99;56.35
18765;BME280;9511;54.242;12.448;2023-05-07T09:43:13;102341.63;;;15.23;57.20
18765;BME280;9511;54.242;12.448;2023-05-07T09:45:50;102340.56;;;15.18;56.16
18765;BME280;9511;54.242;12.448;2023-05-07T09:48:20;102338.59;;;15.39;55.62
18765;BME280;9511;54.242;12.448;2023-05-07T09:50:51;102339.81;;;15.50;55.95
18765;BME280;9511;54.242;12.448;2023-05-07T09:53:24;102337.72;;;15.40;55.60
18765;BME280;9511;54.242;12.448;2023-05-07T09:55:53;102337.41;;;15.59;55.58
18765;BME280;9511;54.242;12.448;2023-05-07T09:58:22;102348.59;;;15.76;55.74
18765;BME280;9511;54.242;12.448;2023-05-07T10:00:51;102339.69;;;15.76;56.36
18765;BME280;9511;54.242;12.448;2023-05-07T10:03:20;102339.41;;;15.97;56.56
18765;BME280;9511;54.242;12.448;2023-05-07T10:05:55;102337.38;;;15.88;55.65
18765;BME280;9511;54.242;12.448;2023-05-07T10:08:24;102344.50;;;15.59;55.32
18765;BME280;9511;54.242;12.448;2023-05-07T10:10:55;102334.56;;;15.53;56.09
18765;BME280;9511;54.242;12.448;2023-05-07T10:13:26;102347.28;;;15.62;55.65
18765;BME280;9511;54.242;12.448;2023-05-07T10:15:56;102341.25;;;15.99;56.58
18765;BME280;9511;54.242;12.448;2023-05-07T10:18:27;102337.75;;;16.00;56.36
18765;BME280;9511;54.242;12.448;2023-05-07T10:21:04;102347.44;;;15.97;54.64
18765;BME280;9511;54.242;12.448;2023-05-07T10:23:36;102332.53;;;15.73;54.40
18765;BME280;9511;54.242;12.448;2023-05-07T10:26:06;102324.56;;;15.75;54.70
18765;BME280;9511;54.242;12.448;2023-05-07T10:28:38;102329.44;;;15.89;54.39
18765;BME280;9511;54.242;12.448;2023-05-07T10:31:20;102348.63;;;16.08;53.64
18765;BME280;9511;54.242;12.448;2023-05-07T10:33:51;102340.50;;;16.03;50.46
18765;BME280;9511;54.242;12.448;2023-05-07T10:36:22;102338.38;;;16.23;51.34
18765;BME280;9511;54.242;12.448;2023-05-07T10:38:54;102340.03;;;16.18;51.73
18765;BME280;9511;54.242;12.448;2023-05-07T10:41:22;102344.06;;;16.35;52.81
18765;BME280;9511;54.242;12.448;2023-05-07T10:43:50;102348.06;;;16.19;51.00
18765;BME280;9511;54.242;12.448;2023-05-07T10:46:26;102349.97;;;15.92;50.13
18765;BME280;9511;54.242;12.448;2023-05-07T10:49:14;102336.13;;;16.40;50.65
18765;BME280;9511;54.242;12.448;2023-05-07T10:52:12;102336.22;;;16.75;49.84
18765;BME280;9511;54.242;12.448;2023-05-07T10:54:46;102341.41;;;16.70;48.87
18765;BME280;9511;54.242;12.448;2023-05-07T10:57:34;102329.06;;;16.40;46.97
18765;BME280;9511;54.242;12.448;2023-05-07T11:03:25;102328.13;;;16.73;47.55
18765;BME280;9511;54.242;12.448;2023-05-07T11:06:09;102327.75;;;16.94;46.91
18765;BME280;9511;54.242;12.448;2023-05-07T11:08:54;102332.47;;;16.69;46.06
18765;BME280;9511;54.242;12.448;2023-05-07T11:11:46;102325.41;;;16.71;46.20
18765;BME280;9511;54.242;12.448;2023-05-07T11:14:42;102323.13;;;16.87;46.67
18765;BME280;9511;54.242;12.448;2023-05-07T11:17:14;102324.34;;;17.01;46.33
18765;BME280;9511;54.242;12.448;2023-05-07T11:19:50;102325.72;;;16.84;46.48
18765;BME280;9511;54.242;12.448;2023-05-07T11:22:36;102320.91;;;17.07;47.33
18765;BME280;9511;54.242;12.448;2023-05-07T11:25:17;102320.63;;;16.94;46.47
18765;BME280;9511;54.242;12.448;2023-05-07T11:27:47;102313.00;;;17.11;46.99
18765;BME280;9511;54.242;12.448;2023-05-07T11:30:17;102315.28;;;17.32;45.91
18765;BME280;9511;54.242;12.448;2023-05-07T11:32:47;102313.63;;;17.80;46.49
18765;BME280;9511;54.242;12.448;2023-05-07T11:35:17;102325.75;;;17.62;45.55
18765;BME280;9511;54.242;12.448;2023-05-07T11:37:48;102330.16;;;18.01;45.26
18765;BME280;9511;54.242;12.448;2023-05-07T11:40:16;102319.72;;;18.18;45.21
18765;BME280;9511;54.242;12.448;2023-05-07T11:42:43;102317.88;;;17.71;44.02
18765;BME280;9511;54.242;12.448;2023-05-07T11:45:23;102319.47;;;18.04;45.09
18765;BME280;9511;54.242;12.448;2023-05-07T11:47:51;102310.53;;;18.02;44.61
18765;BME280;9511;54.242;12.448;2023-05-07T11:50:18;102320.59;;;18.15;43.41
18765;BME280;9511;54.242;12.448;2023-05-07T11:52:50;102322.78;;;17.91;43.42
18765;BME280;9511;54.242;12.448;2023-05-07T11:55:18;102319.00;;;17.80;43.35
18765;BME280;9511;54.242;12.448;2023-05-07T11:57:45;102315.13;;;18.09;43.87
18765;BME280;9511;54.242;12.448;2023-05-07T12:00:16;102317.03;;;18.16;43.18
18765;BME280;9511;54.242;12.448;2023-05-07T12:02:44;102315.53;;;18.32;43.11
18765;BME280;9511;54.242;12.448;2023-05-07T12:05:12;102314.69;;;18.35;43.05
18765;BME280;9511;54.242;12.448;2023-05-07T12:07:39;102312.91;;;18.87;43.10
18765;BME280;9511;54.242;12.448;2023-05-07T12:10:07;102303.84;;;18.77;41.59
18765;BME280;9511;54.242;12.448;2023-05-07T12:12:38;102311.88;;;18.77;41.62
18765;BME280;9511;54.242;12.448;2023-05-07T12:15:06;102318.34;;;18.40;42.89
18765;BME280;9511;54.242;12.448;2023-05-07T12:17:36;102313.75;;;18.82;43.44
18765;BME280;9511;54.242;12.448;2023-05-07T12:20:05;102314.06;;;19.02;43.74
18765;BME280;9511;54.242;12.448;2023-05-07T12:22:32;102310.50;;;18.52;43.71
18765;BME280;9511;54.242;12.448;2023-05-07T12:25:00;102314.13;;;18.52;43.21
18765;BME280;9511;54.242;12.448;2023-05-07T12:27:28;102314.53;;;18.25;43.42
18765;BME280;9511;54.242;12.448;2023-05-07T12:29:57;102323.28;;;18.65;44.16
18765;BME280;9511;54.242;12.448;2023-05-07T12:32:25;102310.44;;;18.99;44.37
18765;BME280;9511;54.242;12.448;2023-05-07T12:34:53;102314.97;;;18.50;42.54
18765;BME280;9511;54.242;12.448;2023-05-07T12:37:23;102318.41;;;18.93;43.00
18765;BME280;9511;54.242;12.448;2023-05-07T12:40:04;102316.00;;;19.14;44.08
18765;BME280;9511;54.242;12.448;2023-05-07T12:42:33;102319.56;;;19.10;43.56
18765;BME280;9511;54.242;12.448;2023-05-07T12:45:07;102317.41;;;18.88;43.99
18765;BME280;9511;54.242;12.448;2023-05-07T12:47:35;102313.94;;;18.95;43.54
18765;BME280;9511;54.242;12.448;2023-05-07T12:50:05;102298.19;;;19.16;43.63
18765;BME280;9511;54.242;12.448;2023-05-07T12:52:33;102304.72;;;19.36;42.82
18765;BME280;9511;54.242;12.448;2023-05-07T12:55:05;102308.09;;;19.22;43.43
18765;BME280;9511;54.242;12.448;2023-05-07T12:57:38;102319.22;;;18.90;44.92
18765;BME280;9511;54.242;12.448;2023-05-07T13:00:06;102312.56;;;19.21;44.13
18765;BME280;9511;54.242;12.448;2023-05-07T13:02:37;102317.69;;;19.06;44.27
18765;BME280;9511;54.242;12.448;2023-05-07T13:05:07;102311.53;;;19.13;43.11
18765;BME280;9511;54.242;12.448;2023-05-07T13:07:35;102301.81;;;19.88;43.05
18765;BME280;9511;54.242;12.448;2023-05-07T13:10:03;102297.28;;;19.17;43.49
18765;BME280;9511;54.242;12.448;2023-05-07T13:12:30;102305.50;;;19.29;43.96
18765;BME280;9511;54.242;12.448;2023-05-07T13:14:57;102311.91;;;19.39;43.02
18765;BME280;9511;54.242;12.448;2023-05-07T13:17:25;102312.06;;;18.89;42.90
18765;BME280;9511;54.242;12.448;2023-05-07T13:19:52;102313.38;;;19.16;42.66
18765;BME280;9511;54.242;12.448;2023-05-07T13:22:21;102316.56;;;19.54;43.31
18765;BME280;9511;54.242;12.448;2023-05-07T13:24:48;102315.25;;;19.89;43.31
18765;BME280;9511;54.242;12.448;2023-05-07T13:27:15;102306.53;;;20.12;42.50
18765;BME280;9511;54.242;12.448;2023-05-07T13:29:42;102308.56;;;20.31;40.73
18765;BME280;9511;54.242;12.448;2023-05-07T13:32:09;102304.66;;;20.02;40.70
18765;BME280;9511;54.242;12.448;2023-05-07T13:34:36;102309.88;;;19.89;40.60
18765;BME280;9511;54.242;12.448;2023-05-07T13:37:04;102303.25;;;20.40;40.65
18765;BME280;9511;54.242;12.448;2023-05-07T13:39:32;102306.53;;;20.12;39.83
18765;BME280;9511;54.242;12.448;2023-05-07T13:41:59;102300.00;;;19.85;39.55
18765;BME280;9511;54.242;12.448;2023-05-07T13:44:26;102297.78;;;20.31;41.48
18765;BME280;9511;54.242;12.448;2023-05-07T13:46:54;102308.56;;;20.31;41.55
18765;BME280;9511;54.242;12.448;2023-05-07T13:49:21;102301.22;;;20.15;40.50
18765;BME280;9511;54.242;12.448;2023-05-07T13:51:48;102297.28;;;20.72;40.15
18765;BME280;9511;54.242;12.448;2023-05-07T13:54:15;102302.47;;;20.52;40.09
18765;BME280;9511;54.242;12.448;2023-05-07T13:56:44;102294.41;;;20.48;40.72
18765;BME280;9511;54.242;12.448;2023-05-07T13:59:11;102295.72;;;20.06;40.83
18765;BME280;9511;54.242;12.448;2023-05-07T14:01:40;102300.22;;;20.07;40.98
18765;BME280;9511;54.242;12.448;2023-05-07T14:04:07;102300.13;;;19.96;41.34
18765;BME280;9511;54.242;12.448;2023-05-07T14:06:34;102299.25;;;19.99;41.32
18765;BME280;9511;54.242;12.448;2023-05-07T14:09:02;102293.88;;;19.99;40.85
18765;BME280;9511;54.242;12.448;2023-05-07T14:11:29;102290.91;;;19.73;41.13
18765;BME280;9511;54.242;12.448;2023-05-07T14:13:58;102287.22;;;19.66;42.43
18765;BME280;9511;54.242;12.448;2023-05-07T14:16:25;102294.44;;;19.70;41.42
18765;BME280;9511;54.242;12.448;2023-05-07T14:18:53;102290.28;;;19.97;40.87
18765;BME280;9511;54.242;12.448;2023-05-07T14:21:20;102293.44;;;20.44;40.94
18765;BME280;9511;54.242;12.448;2023-05-07T14:23:47;102289.47;;;20.04;40.57
18765;BME280;9511;54.242;12.448;2023-05-07T14:26:14;102292.72;;;19.75;40.32
18765;BME280;9511;54.242;12.448;2023-05-07T14:28:42;102294.44;;;19.72;41.15
18765;BME280;9511;54.242;12.448;2023-05-07T14:31:13;102297.53;;;20.07;40.62
18765;BME280;9511;54.242;12.448;2023-05-07T14:33:40;102297.13;;;19.70;40.86
18765;BME280;9511;54.242;12.448;2023-05-07T14:36:07;102296.31;;;19.77;40.37
18765;BME280;9511;54.242;12.448;2023-05-07T14:38:35;102301.69;;;19.12;40.83
18765;BME280;9511;54.242;12.448;2023-05-07T14:41:02;102287.69;;;19.34;40.22
18765;BME280;9511;54.242;12.448;2023-05-07T14:43:29;102291.56;;;19.58;41.40
18765;BME280;9511;54.242;12.448;2023-05-07T14:45:57;102293.47;;;19.00;40.82
18765;BME280;9511;54.242;12.448;2023-05-07T14:48:25;102293.47;;;19.65;40.46
18765;BME280;9511;54.242;12.448;2023-05-07T14:50:52;102301.66;;;19.74;40.29
18765;BME280;9511;54.242;12.448;2023-05-07T14:53:20;102297.19;;;19.76;40.30
18765;BME280;9511;54.242;12.448;2023-05-07T14:55:47;102298.59;;;19.47;39.96
18765;BME280;9511;54.242;12.448;2023-05-07T14:58:14;102306.06;;;19.69;40.17
18765;BME280;9511;54.242;12.448;2023-05-07T15:00:42;102307.00;;;19.09;39.68
18765;BME280;9511;54.242;12.448;2023-05-07T15:03:10;102306.50;;;19.37;40.04
18765;BME280;9511;54.242;12.448;2023-05-07T15:05:41;102323.19;;;19.15;39.46
18765;BME280;9511;54.242;12.448;2023-05-07T15:08:09;102319.09;;;19.40;39.28
18765;BME280;9511;54.242;12.448;2023-05-07T15:10:36;102312.06;;;19.51;39.48
18765;BME280;9511;54.242;12.448;2023-05-07T15:13:07;102317.38;;;19.48;39.57
18765;BME280;9511;54.242;12.448;2023-05-07T15:15:34;102318.28;;;19.49;39.14
18765;BME280;9511;54.242;12.448;2023-05-07T15:18:02;102325.03;;;19.19;39.86
18765;BME280;9511;54.242;12.448;2023-05-07T15:20:29;102328.63;;;18.65;39.66
18765;BME280;9511;54.242;12.448;2023-05-07T15:22:58;102322.00;;;18.96;40.11
18765;BME280;9511;54.242;12.448;2023-05-07T15:25:26;102329.25;;;19.02;39.37
18765;BME280;9511;54.242;12.448;2023-05-07T15:27:53;102325.72;;;19.04;39.24
18765;BME280;9511;54.242;12.448;2023-05-07T15:30:20;102327.94;;;19.33;39.03
18765;BME280;9511;54.242;12.448;2023-05-07T15:32:48;102331.91;;;19.59;38.64
18765;BME280;9511;54.242;12.448;2023-05-07T15:35:15;102342.16;;;19.27;38.61
18765;BME280;9511;54.242;12.448;2023-05-07T15:37:47;102329.50;;;19.17;38.43
18765;BME280;9511;54.242;12.448;2023-05-07T15:40:16;102337.88;;;19.40;38.19
18765;BME280;9511;54.242;12.448;2023-05-07T15:42:45;102341.69;;;18.97;38.42
18765;BME280;9511;54.242;12.448;2023-05-07T15:45:12;102345.53;;;19.14;37.56
18765;BME280;9511;54.242;12.448;2023-05-07T15:47:40;102338.94;;;19.54;37.79
18765;BME280;9511;54.242;12.448;2023-05-07T15:50:08;102345.22;;;18.94;38.36
18765;BME280;9511;54.242;12.448;2023-05-07T15:52:35;102332.91;;;19.07;37.64
18765;BME280;9511;54.242;12.448;2023-05-07T15:55:04;102334.50;;;18.94;37.98
18765;BME280;9511;54.242;12.448;2023-05-07T15:57:41;102338.06;;;18.42;37.84
18765;BME280;9511;54.242;12.448;2023-05-07T16:00:09;102336.41;;;18.50;38.52
18765;BME280;9511;54.242;12.448;2023-05-07T16:02:40;102327.75;;;18.18;38.05
18765;BME280;9511;54.242;12.448;2023-05-07T16:05:08;102329.59;;;18.20;38.88
18765;BME280;9511;54.242;12.448;2023-05-07T16:07:36;102334.41;;;18.88;37.63
18765;BME280;9511;54.242;12.448;2023-05-07T16:10:05;102333.34;;;18.77;36.58